Time;durP1;ratioP1;P1;durP2;ratioP2;P2;SDS_P1;SDS_P2;PMS_P1;PMS_P2;Temp;Humidity;BMP_temperature;BMP_pressure;BME280_temperature;BME280_humidity;BME280_pressure;Samples;Min_cycle;Max_cycle;Signal;HPM_P1;HPM_P2
2023/01/03 00:00:16;;;;;;;51.88;31.75;;;;;;;5.06;57.72;95962.78;5025152;28;20025;-77
2023/01/03 00:02:41;;;;;;;54.40;31.25;;;;;;;5.06;57.87;95981.84;5025607;28;20113;-77
2023/01/03 00:05:07;;;;;;;54.22;31.27;;;;;;;5.03;58.09;95977.13;5024777;28;20043;-77
2023/01/03 00:07:32;;;;;;;53.80;31.92;;;;;;;5.00;58.14;95968.94;5025696;28;20042;-76
2023/01/03 00:10:11;;;;;;;52.22;31.25;;;;;;;4.96;57.99;95977.06;5008252;28;20040;-78
2023/01/03 00:12:36;;;;;;;47.78;30.33;;;;;;;4.84;58.36;95961.00;5027379;28;20325;-77
2023/01/03 00:15:02;;;;;;;56.03;32.00;;;;;;;4.90;58.40;95973.13;5008568;28;20500;-77
2023/01/03 00:17:28;;;;;;;55.03;31.42;;;;;;;4.93;58.64;95972.41;5008952;28;20018;-76
2023/01/03 00:19:53;;;;;;;54.10;32.30;;;;;;;4.88;58.50;95969.22;5025517;28;20017;-76
2023/01/03 00:22:19;;;;;;;48.47;30.45;;;;;;;4.89;58.31;95960.66;5008155;28;20025;-78
2023/01/03 00:24:45;;;;;;;51.75;31.65;;;;;;;4.92;58.52;95973.53;5025482;28;20488;-77
2023/01/03 00:27:11;;;;;;;47.42;30.55;;;;;;;4.92;58.61;95968.06;5025893;28;20025;-77
2023/01/03 00:29:36;;;;;;;52.92;33.65;;;;;;;4.95;59.50;95972.78;5025625;28;20047;-77
2023/01/03 00:32:02;;;;;;;52.97;33.35;;;;;;;4.98;60.48;95976.69;5024384;28;20427;-77
2023/01/03 00:34:27;;;;;;;69.93;41.28;;;;;;;4.97;60.52;95977.84;5025326;28;20064;-77
2023/01/03 00:36:53;;;;;;;56.88;32.60;;;;;;;4.88;58.92;95967.28;5007955;28;20104;-76
2023/01/03 00:39:19;;;;;;;47.53;30.02;;;;;;;4.89;58.31;95973.50;5008182;28;20104;-76
2023/01/03 00:41:44;;;;;;;51.58;30.25;;;;;;;4.81;58.16;95959.00;5017300;28;20288;-77
2023/01/03 00:44:10;;;;;;;48.88;29.90;;;;;;;4.89;58.49;95971.56;5014601;28;20037;-76
2023/01/03 00:46:35;;;;;;;49.97;30.85;;;;;;;4.84;58.17;95969.19;5026857;28;20025;-77
2023/01/03 00:49:01;;;;;;;43.13;29.77;;;;;;;4.83;57.99;95969.56;5025543;28;20400;-77
2023/01/03 00:51:29;;;;;;;45.85;29.15;;;;;;;4.77;58.20;95969.13;5008838;28;20030;-77
2023/01/03 00:53:55;;;;;;;45.90;29.50;;;;;;;4.73;58.32;95968.28;5008446;28;20431;-77
2023/01/03 00:56:23;;;;;;;51.17;33.05;;;;;;;4.74;59.48;95969.84;4991836;28;20504;-78
2023/01/03 00:58:48;;;;;;;51.67;31.85;;;;;;;4.71;59.17;95970.63;5008760;28;20114;-77
2023/01/03 01:01:48;;;;;;;51.25;32.05;;;;;;;4.66;58.70;95969.00;5007773;28;20116;-78
2023/01/03 01:04:27;;;;;;;50.40;31.35;;;;;;;4.64;59.07;95965.84;4992044;28;20070;-77
2023/01/03 01:07:01;;;;;;;47.95;31.85;;;;;;;4.64;58.95;95965.84;4971164;28;20042;-76
2023/01/03 01:09:34;;;;;;;45.25;28.33;;;;;;;4.65;58.85;95961.22;4972076;28;20030;-78
2023/01/03 01:11:59;;;;;;;46.50;30.50;;;;;;;4.58;58.90;95959.16;5003688;28;20420;-77
2023/01/03 01:14:26;;;;;;;45.70;29.45;;;;;;;4.53;58.69;95959.53;4970574;28;20034;-76
2023/01/03 01:16:56;;;;;;;47.00;30.30;;;;;;;4.51;58.60;95948.22;4987834;28;20040;-76
2023/01/03 01:19:26;;;;;;;46.83;28.73;;;;;;;4.52;58.36;95950.56;4970647;28;20521;-77
2023/01/03 01:21:51;;;;;;;42.00;26.13;;;;;;;4.51;58.24;95961.84;4971817;28;20034;-77
2023/01/03 01:24:17;;;;;;;43.47;27.40;;;;;;;4.50;58.18;95957.53;4986885;28;20036;-78
2023/01/03 01:26:42;;;;;;;50.30;28.15;;;;;;;4.49;58.03;95958.72;4987129;28;20493;-77
2023/01/03 01:29:09;;;;;;;43.25;28.13;;;;;;;4.47;58.01;95953.63;4987180;28;20472;-77
2023/01/03 01:31:35;;;;;;;45.08;28.67;;;;;;;4.49;57.89;95958.72;4970540;28;20441;-76
2023/01/03 01:34:00;;;;;;;43.38;28.02;;;;;;;4.46;57.78;95952.06;4987248;28;20049;-76
2023/01/03 01:36:28;;;;;;;47.53;28.13;;;;;;;4.45;58.15;95957.88;4986442;28;20092;-78
2023/01/03 01:38:58;;;;;;;42.22;27.50;;;;;;;4.46;58.04;95954.78;5010835;28;20030;-77
2023/01/03 01:44:39;;;;;;;54.40;33.15;;;;;;;4.40;58.57;95953.53;5010415;28;20538;-77
2023/01/03 01:47:30;;;;;;;60.65;34.97;;;;;;;4.38;58.95;95947.69;5025873;28;20045;-78
2023/01/03 01:50:06;;;;;;;57.65;33.90;;;;;;;4.40;58.69;95947.31;5025624;28;20041;-77
2023/01/03 01:52:32;;;;;;;53.63;33.17;;;;;;;4.31;59.00;95941.41;5027882;28;20049;-76
2023/01/03 01:54:58;;;;;;;57.63;34.53;;;;;;;4.33;59.29;95939.84;5011547;28;20097;-78
2023/01/03 01:57:23;;;;;;;71.03;42.00;;;;;;;4.30;59.51;95937.88;5027459;28;20084;-78
2023/01/03 01:59:49;;;;;;;60.03;38.05;;;;;;;4.30;59.19;95937.09;5011894;28;20029;-77
2023/01/03 02:02:18;;;;;;;60.97;38.63;;;;;;;4.28;59.30;95937.47;5010772;28;20022;-76
2023/01/03 02:04:44;;;;;;;56.08;36.35;;;;;;;4.25;58.96;95949.09;5012406;28;20044;-76
2023/01/03 02:07:09;;;;;;;48.00;31.77;;;;;;;4.22;58.39;95945.16;4994054;28;20038;-77
2023/01/03 02:09:34;;;;;;;52.17;32.25;;;;;;;4.20;58.03;95944.78;5011283;28;20025;-77
2023/01/03 02:15:13;;;;;;;48.53;31.00;;;;;;;4.16;58.17;95935.78;5014216;28;20076;-77
2023/01/03 02:18:07;;;;;;;52.72;33.35;;;;;;;4.10;58.50;95937.25;5028050;28;20034;-77
2023/01/03 02:21:07;;;;;;;57.67;34.28;;;;;;;4.05;58.60;95937.56;5012419;28;20030;-77
2023/01/03 02:23:37;;;;;;;53.17;31.98;;;;;;;4.07;58.63;95938.00;5026960;28;20049;-77
2023/01/03 02:26:43;;;;;;;57.25;33.78;;;;;;;4.06;58.63;95938.34;5027688;28;20029;-76
2023/01/03 02:29:33;;;;;;;49.30;32.30;;;;;;;4.05;58.38;95939.53;5027234;28;20502;-77
2023/01/03 02:32:32;;;;;;;54.38;32.05;;;;;;;4.02;58.40;95935.63;5028606;28;20562;-77
2023/01/03 02:35:06;;;;;;;56.58;35.78;;;;;;;3.97;58.38;95927.78;5028108;28;20061;-78
2023/01/03 02:37:43;;;;;;;57.30;37.13;;;;;;;3.98;58.44;95930.13;5026869;28;20075;-77
2023/01/03 02:40:22;;;;;;;61.20;39.05;;;;;;;3.96;58.68;95935.16;5026626;28;20021;-77
2023/01/03 02:43:04;;;;;;;58.58;38.63;;;;;;;3.93;58.08;95932.38;5012008;28;20030;-77
2023/01/03 02:45:45;;;;;;;67.10;39.15;;;;;;;3.85;58.57;95930.72;5011456;28;20076;-76
2023/01/03 02:48:50;;;;;;;68.28;41.88;;;;;;;3.81;58.78;95933.41;5027191;28;20037;-79
2023/01/03 02:51:20;;;;;;;74.72;43.97;;;;;;;3.82;59.01;95926.00;5028255;28;20060;-77
2023/01/03 02:53:46;;;;;;;79.30;47.17;;;;;;;3.82;59.36;95928.72;5026527;28;20480;-77
2023/01/03 02:56:15;;;;;;;70.70;42.80;;;;;;;3.79;58.98;95930.28;5010379;28;20025;-78
2023/01/03 02:58:43;;;;;;;66.07;40.45;;;;;;;3.79;58.94;95921.31;5010266;28;20032;-77
2023/01/03 03:01:08;;;;;;;61.85;38.92;;;;;;;3.79;58.91;95921.31;5010144;28;20104;-77
2023/01/03 03:03:37;;;;;;;71.28;39.88;;;;;;;3.76;58.64;95922.06;5010596;28;20028;-78
2023/01/03 03:06:06;;;;;;;61.03;35.78;;;;;;;3.80;58.36;95923.66;5028993;28;20048;-76
2023/01/03 03:08:33;;;;;;;64.25;36.10;;;;;;;3.76;58.19;95928.28;5031847;28;20076;-77
2023/01/03 03:13:59;;;;;;;62.67;34.15;;;;;;;3.75;58.16;95924.00;5029049;28;20372;-76
2023/01/03 03:25:28;;;;;;;58.70;34.92;;;;;;;3.64;58.28;95923.06;4993113;28;20048;-77
2023/01/03 03:30:52;;;;;;;49.90;31.73;;;;;;;3.65;58.11;95917.25;5006206;28;20045;-76
2023/01/03 03:33:17;;;;;;;51.92;30.60;;;;;;;3.61;58.22;95919.16;4972681;28;20026;-77
2023/01/03 03:35:52;;;;;;;49.15;31.02;;;;;;;3.62;58.16;95919.94;4973203;28;20172;-77
2023/01/03 03:38:22;;;;;;;43.45;30.02;;;;;;;3.59;58.31;95934.25;4973357;28;20030;-76
2023/01/03 03:47:47;;;;;;;55.70;34.38;;;;;;;3.50;58.55;95925.56;4978400;28;20516;-77
2023/01/03 03:50:16;;;;;;;61.63;36.78;;;;;;;3.43;58.62;95932.47;4987777;28;20057;-76
2023/01/03 03:52:43;;;;;;;60.55;37.53;;;;;;;3.45;58.54;95929.41;4989029;28;20099;-77
2023/01/03 03:55:18;;;;;;;72.97;41.60;;;;;;;3.43;58.67;95928.97;4976972;28;20083;-77
2023/01/03 03:57:46;;;;;;;80.18;45.97;;;;;;;3.42;58.78;95932.84;5009482;28;20029;-77
2023/01/03 04:00:15;;;;;;;84.60;47.47;;;;;;;3.37;58.78;95920.34;5009469;28;20028;-78
2023/01/03 04:02:41;;;;;;;87.38;50.65;;;;;;;3.39;58.78;95923.50;5009304;28;20034;-77
2023/01/03 04:05:07;;;;;;;82.22;49.28;;;;;;;3.39;58.45;95914.56;5009541;28;20021;-76
2023/01/03 04:07:33;;;;;;;81.20;46.40;;;;;;;3.39;58.53;95920.78;5008732;28;20049;-76
2023/01/03 04:09:59;;;;;;;75.70;46.47;;;;;;;3.36;58.74;95923.44;5009882;28;20053;-77
2023/01/03 04:12:24;;;;;;;70.78;43.45;;;;;;;3.36;58.77;95920.72;5007610;28;20060;-77
2023/01/03 04:14:50;;;;;;;75.80;43.58;;;;;;;3.38;58.64;95927.38;5009344;28;20030;-77
2023/01/03 04:17:15;;;;;;;75.30;43.10;;;;;;;3.38;58.42;95919.22;5025126;28;20017;-77
2023/01/03 04:19:41;;;;;;;71.57;41.97;;;;;;;3.34;58.42;95923.81;5008450;28;20037;-77
2023/01/03 04:22:06;;;;;;;69.57;42.47;;;;;;;3.33;58.10;95924.97;5009039;28;20021;-77
2023/01/03 04:24:32;;;;;;;66.68;41.33;;;;;;;3.31;58.28;95927.25;5008406;28;20029;-77
2023/01/03 04:26:57;;;;;;;76.22;45.17;;;;;;;3.32;58.49;95926.09;5026392;28;20029;-76
2023/01/03 04:29:22;;;;;;;78.47;45.13;;;;;;;3.31;58.41;95929.19;5007939;28;20044;-76
2023/01/03 04:31:48;;;;;;;79.50;46.40;;;;;;;3.26;58.53;95927.56;5027003;28;20036;-78
2023/01/03 04:34:13;;;;;;;82.88;49.25;;;;;;;3.23;58.47;95928.31;5026002;28;20025;-77
2023/01/03 04:36:39;;;;;;;81.57;48.17;;;;;;;3.23;58.37;95930.25;5024959;28;20029;-76
2023/01/03 04:39:04;;;;;;;81.15;49.15;;;;;;;3.24;58.11;95940.75;5008707;28;20103;-76
2023/01/03 04:41:30;;;;;;;89.50;51.03;;;;;;;3.21;57.91;95938.75;5024517;28;20030;-78
2023/01/03 04:44:01;;;;;;;101.78;57.05;;;;;;;3.22;57.94;95943.03;5008506;28;20040;-78
2023/01/03 04:46:33;;;;;;;115.85;63.75;;;;;;;3.23;57.84;95952.75;4993042;28;20468;-78
2023/01/03 04:48:59;;;;;;;114.80;59.83;;;;;;;3.16;58.02;95963.53;5026887;28;20025;-76
2023/01/03 04:51:26;;;;;;;102.32;55.47;;;;;;;3.17;57.90;95951.50;5024258;28;20140;-77
2023/01/03 04:53:52;;;;;;;94.00;52.40;;;;;;;3.16;57.77;95967.03;5008625;28;20036;-78
2023/01/03 04:56:25;;;;;;;85.25;48.00;;;;;;;3.09;57.91;95958.75;5007911;28;20037;-77
2023/01/03 04:58:51;;;;;;;91.75;48.58;;;;;;;3.06;57.93;95955.97;5024352;28;20048;-77
2023/01/03 05:01:16;;;;;;;92.65;52.63;;;;;;;3.07;58.22;95961.03;5008404;28;20112;-77
2023/01/03 05:03:42;;;;;;;96.45;55.25;;;;;;;3.06;58.48;95962.19;5007583;28;20045;-78
2023/01/03 05:06:07;;;;;;;92.88;52.75;;;;;;;3.02;58.40;95966.00;5025335;28;20072;-79
2023/01/03 05:08:33;;;;;;;92.95;52.92;;;;;;;3.03;58.88;95964.84;5007946;28;20049;-77
2023/01/03 05:10:59;;;;;;;101.72;55.00;;;;;;;3.00;58.94;95966.38;5024798;28;20419;-77
2023/01/03 05:13:24;;;;;;;101.60;51.83;;;;;;;2.95;58.46;95961.22;5024004;28;20460;-77
2023/01/03 05:15:50;;;;;;;91.55;53.30;;;;;;;2.87;58.78;95970.41;5025482;28;20345;-77
2023/01/03 05:18:15;;;;;;;98.70;54.70;;;;;;;2.83;58.86;95964.13;5024275;28;20436;-79
2023/01/03 05:26:09;;;;;;;;;;;;;;;2.89;59.05;95976.25;5030389;28;20143;-76
2023/01/03 05:28:34;;;;;;;99.28;52.17;;;;;;;2.80;59.37;95971.06;5028885;28;19913;-78
2023/01/03 05:31:00;;;;;;;99.70;53.42;;;;;;;2.80;59.31;95968.34;5030042;28;20432;-78
2023/01/03 05:33:26;;;;;;;93.70;52.60;;;;;;;2.82;59.22;95973.44;5041334;28;20017;-76
2023/01/03 05:35:51;;;;;;;111.05;57.70;;;;;;;2.77;59.33;95963.66;5038495;28;20068;-78
2023/01/03 05:38:17;;;;;;;105.85;55.85;;;;;;;2.81;59.29;95969.13;5028319;28;20022;-79
2023/01/03 05:40:42;;;;;;;105.72;57.35;;;;;;;2.82;59.61;95968.00;5029301;28;20025;-77
2023/01/03 05:43:08;;;;;;;110.53;58.40;;;;;;;2.79;59.72;95974.13;5028234;28;20064;-76
2023/01/03 05:45:37;;;;;;;114.65;60.00;;;;;;;2.78;59.54;95973.34;5029805;28;20026;-77
2023/01/03 05:48:03;;;;;;;117.88;58.67;;;;;;;2.77;59.52;95966.38;5012101;28;20143;-78
2023/01/03 05:50:28;;;;;;;111.15;59.83;;;;;;;2.81;59.62;95967.22;5011644;28;20053;-76
2023/01/03 05:52:54;;;;;;;122.40;61.47;;;;;;;2.79;59.39;95974.13;5028528;28;20033;-76
2023/01/03 05:55:19;;;;;;;142.07;67.70;;;;;;;2.80;59.37;95976.47;5010820;28;20433;-78
2023/01/03 05:57:46;;;;;;;152.60;72.72;;;;;;;2.77;59.22;95977.22;5028540;28;20044;-76
2023/01/03 06:00:13;;;;;;;146.85;69.35;;;;;;;2.79;59.13;95987.72;5010995;28;20040;-76
2023/01/03 06:02:39;;;;;;;146.52;69.80;;;;;;;2.82;59.02;95989.72;5029684;28;20021;-76
2023/01/03 06:05:05;;;;;;;148.90;68.90;;;;;;;2.84;59.25;95973.84;5011413;28;20032;-77
2023/01/03 06:07:32;;;;;;;156.05;67.50;;;;;;;2.81;59.62;95983.50;5028707;28;20143;-78
2023/01/03 06:09:58;;;;;;;150.98;71.03;;;;;;;2.79;59.62;95985.78;4995719;28;20026;-76
2023/01/03 06:12:27;;;;;;;150.90;69.18;;;;;;;2.81;59.61;95990.84;5010670;28;20029;-77
2023/01/03 06:14:52;;;;;;;148.05;66.05;;;;;;;2.80;59.29;95990.06;5011507;28;20021;-76
2023/01/03 06:20:02;;;;;;;;;;;;;;;2.80;59.77;96003.66;5030577;28;20049;-76
2023/01/03 06:22:27;;;;;;;143.60;66.20;;;;;;;2.76;59.68;95997.38;5027506;28;19913;-78
2023/01/03 06:24:52;;;;;;;151.68;72.93;;;;;;;2.76;59.40;95996.59;5027220;28;20546;-77
2023/01/03 06:27:18;;;;;;;163.77;71.90;;;;;;;2.74;59.51;95998.88;5028726;28;20041;-78
2023/01/03 06:29:43;;;;;;;161.77;70.97;;;;;;;2.72;59.75;95990.31;5010706;28;20033;-78
2023/01/03 06:32:09;;;;;;;140.35;62.50;;;;;;;2.75;59.92;95990.34;4994816;28;20060;-77
2023/01/03 06:34:34;;;;;;;125.53;61.72;;;;;;;2.77;59.67;95998.94;5027600;28;20029;-77
2023/01/03 06:37:00;;;;;;;128.13;59.80;;;;;;;2.75;59.76;96001.22;5028649;28;20403;-75
2023/01/03 06:39:25;;;;;;;115.28;59.58;;;;;;;2.60;59.77;95989.34;5027946;28;20443;-76
2023/01/03 06:41:50;;;;;;;122.07;55.25;;;;;;;2.75;59.50;96001.22;5027184;28;20025;-76
2023/01/03 06:44:16;;;;;;;123.00;58.47;;;;;;;2.73;59.48;95995.38;5027001;28;20014;-76
2023/01/03 06:54:57;;;;;;;107.60;55.45;;;;;;;2.83;59.75;96011.09;5013419;28;20033;-75
2023/01/03 06:57:22;;;;;;;112.88;57.90;;;;;;;2.86;60.04;96021.22;5010120;28;20041;-77
2023/01/03 06:59:48;;;;;;;107.03;55.38;;;;;;;2.92;59.86;96021.69;5009945;28;20056;-76
2023/01/03 07:02:13;;;;;;;106.15;55.15;;;;;;;2.98;59.84;96030.34;4993988;28;20029;-77
2023/01/03 07:04:39;;;;;;;114.97;55.88;;;;;;;2.98;59.66;96025.69;5025831;28;20744;-77
2023/01/03 07:07:04;;;;;;;120.10;55.15;;;;;;;3.00;59.74;96025.34;4992969;28;20125;-78
2023/01/03 07:09:30;;;;;;;113.03;52.58;;;;;;;3.07;59.60;96028.19;5008269;28;20060;-76
2023/01/03 07:11:55;;;;;;;108.47;49.72;;;;;;;3.14;59.27;96039.94;5010222;28;20036;-77
2023/01/03 07:14:21;;;;;;;95.93;47.63;;;;;;;3.16;58.81;96032.25;5009892;28;20202;-76
2023/01/03 07:16:47;;;;;;;97.75;47.45;;;;;;;3.23;58.43;96042.44;4993274;28;20029;-77
2023/01/03 07:19:16;;;;;;;99.68;44.30;;;;;;;3.31;58.01;96040.63;5009933;28;20033;-76
2023/01/03 07:21:42;;;;;;;96.15;46.58;;;;;;;3.41;58.01;96040.00;5009655;28;20037;-77
2023/01/03 07:24:07;;;;;;;91.03;44.08;;;;;;;3.43;57.65;96040.44;5010285;28;20029;-78
2023/01/03 07:26:33;;;;;;;96.70;45.58;;;;;;;3.52;57.61;96045.63;4992636;28;20424;-76
2023/01/03 07:29:01;;;;;;;89.47;44.35;;;;;;;3.56;57.41;96046.47;5010341;28;20477;-78
2023/01/03 07:31:26;;;;;;;87.28;45.33;;;;;;;3.60;57.38;96037.22;4993232;28;20141;-77
2023/01/03 07:33:52;;;;;;;88.38;44.75;;;;;;;3.69;57.22;96036.97;4993033;28;20471;-77
2023/01/03 07:36:17;;;;;;;90.80;45.83;;;;;;;3.77;57.20;96035.91;5009434;28;20033;-78
2023/01/03 07:38:43;;;;;;;81.32;42.80;;;;;;;3.85;57.03;96039.53;5008821;28;20083;-78
2023/01/03 07:41:09;;;;;;;83.15;45.88;;;;;;;3.97;56.58;96031.94;5009803;28;20607;-77
2023/01/03 07:43:35;;;;;;;74.60;42.45;;;;;;;4.21;56.01;96044.31;5008474;28;20500;-78
2023/01/03 07:46:18;;;;;;;83.82;44.78;;;;;;;4.39;55.92;96038.31;5009927;28;20025;-77
2023/01/03 07:48:45;;;;;;;75.60;43.25;;;;;;;4.55;55.57;96038.13;5009536;28;20113;-77
2023/01/03 07:51:12;;;;;;;83.65;45.53;;;;;;;4.75;55.12;96039.50;5009147;28;20500;-77
2023/01/03 07:53:38;;;;;;;84.32;46.10;;;;;;;4.97;54.63;96048.72;5009254;28;20037;-79
2023/01/03 07:56:08;;;;;;;90.97;45.70;;;;;;;5.01;54.35;96039.44;5014389;28;20041;-78
2023/01/03 07:58:34;;;;;;;81.63;46.08;;;;;;;5.26;53.64;96042.38;5033226;28;20059;-76
2023/01/03 08:01:04;;;;;;;81.53;46.88;;;;;;;5.49;53.07;96041.41;5015945;28;20053;-75
2023/01/03 08:03:29;;;;;;;86.40;47.00;;;;;;;5.74;52.67;96039.69;5010195;28;20033;-77
2023/01/03 08:06:00;;;;;;;82.97;47.40;;;;;;;6.07;51.62;96043.41;5025408;28;20026;-80
2023/01/03 08:08:25;;;;;;;79.70;49.53;;;;;;;6.92;49.59;96048.50;5009346;28;20042;-78
2023/01/03 08:13:35;;;;;;;86.57;47.10;;;;;;;10.49;41.93;96045.22;5025921;28;20041;-79
2023/01/03 08:16:00;;;;;;;85.43;47.83;;;;;;;11.91;38.81;96053.56;4993016;28;20033;-78
2023/01/03 08:18:26;;;;;;;84.18;50.28;;;;;;;13.42;35.78;96052.31;5008272;28;20038;-77
2023/01/03 08:20:54;;;;;;;77.05;46.30;;;;;;;14.84;33.08;96045.22;5009492;28;20519;-76
2023/01/03 08:23:24;;;;;;;73.32;46.45;;;;;;;16.15;31.20;96053.56;5008859;28;20037;-77
2023/01/03 08:25:49;;;;;;;75.85;47.85;;;;;;;17.45;29.18;96056.19;5008934;28;20093;-77
2023/01/03 08:28:15;;;;;;;74.70;46.80;;;;;;;18.53;27.44;96053.47;5008964;28;20025;-77
2023/01/03 08:30:43;;;;;;;77.88;51.95;;;;;;;19.58;26.17;96048.44;5007773;28;20090;-77
2023/01/03 08:33:10;;;;;;;80.07;52.50;;;;;;;20.64;24.57;96055.69;5009308;28;20492;-78
2023/01/03 08:35:38;;;;;;;81.38;54.22;;;;;;;21.50;23.50;96059.66;5024291;28;20079;-78
2023/01/03 08:38:06;;;;;;;82.85;53.42;;;;;;;22.40;22.24;96054.22;5009943;28;20040;-80
2023/01/03 08:40:34;;;;;;;74.85;52.85;;;;;;;23.16;21.21;96059.00;5008544;28;20067;-79
2023/01/03 08:43:01;;;;;;;71.82;50.08;;;;;;;23.79;20.64;96047.88;5024783;28;20021;-77
2023/01/03 08:45:26;;;;;;;68.03;48.78;;;;;;;24.57;20.03;96053.31;5008513;28;20029;-78
2023/01/03 08:47:53;;;;;;;62.33;47.50;;;;;;;25.27;19.12;96046.94;5008006;28;20171;-76
2023/01/03 08:50:18;;;;;;;58.28;45.42;;;;;;;25.76;18.75;96052.44;4992265;28;20454;-77
2023/01/03 08:52:44;;;;;;;53.88;43.40;;;;;;;26.50;17.98;96051.09;5024256;28;20496;-77
2023/01/03 08:55:09;;;;;;;57.45;43.65;;;;;;;27.07;17.48;96053.25;5025295;28;20025;-79
2023/01/03 08:57:35;;;;;;;55.40;44.70;;;;;;;27.66;16.93;96045.44;5025288;28;20033;-77
2023/01/03 09:00:00;;;;;;;53.50;43.90;;;;;;;28.50;16.17;96048.34;5025455;28;20044;-77
2023/01/03 09:02:26;;;;;;;60.80;45.97;;;;;;;28.99;15.59;96044.72;5008081;28;20030;-79
2023/01/03 09:04:51;;;;;;;53.08;44.53;;;;;;;29.60;15.22;96043.16;5024423;28;20074;-77
2023/01/03 09:07:17;;;;;;;55.67;43.55;;;;;;;30.08;14.53;96044.19;4991941;28;20084;-78
2023/01/03 09:09:42;;;;;;;51.83;43.67;;;;;;;30.69;14.44;96042.38;5007403;28;20025;-78
2023/01/03 09:12:08;;;;;;;49.92;42.72;;;;;;;31.15;14.25;96043.00;5008548;28;20081;-78
2023/01/03 09:14:33;;;;;;;53.85;44.95;;;;;;;31.44;13.82;96044.72;5007099;28;20029;-76
2023/01/03 09:16:59;;;;;;;55.10;45.72;;;;;;;31.67;13.89;96039.28;5025039;28;20052;-79
2023/01/03 09:19:24;;;;;;;50.75;44.53;;;;;;;31.84;13.15;96038.16;5007422;28;20037;-77
2023/01/03 09:21:49;;;;;;;51.03;44.50;;;;;;;31.99;13.16;96038.28;5007279;28;20025;-78
2023/01/03 09:24:15;;;;;;;52.85;44.50;;;;;;;32.25;13.07;96028.84;5026223;28;20463;-78
2023/01/03 09:26:40;;;;;;;53.55;46.97;;;;;;;32.52;13.13;96023.78;5007028;28;20521;-77
2023/01/03 09:29:06;;;;;;;57.90;47.70;;;;;;;32.91;12.82;96024.78;5008300;28;20026;-78
2023/01/03 09:31:33;;;;;;;56.22;47.55;;;;;;;33.19;12.24;96019.03;5024520;28;20416;-78
2023/01/03 09:34:02;;;;;;;55.83;48.67;;;;;;;33.78;12.28;96019.06;5024800;28;20026;-77
2023/01/03 09:36:27;;;;;;;56.28;50.05;;;;;;;34.38;11.91;96011.13;5024877;28;20033;-78
2023/01/03 09:38:54;;;;;;;65.43;53.15;;;;;;;34.71;11.51;96006.34;5007561;28;20037;-77
2023/01/03 09:41:23;;;;;;;63.65;53.78;;;;;;;35.16;11.63;96001.88;5008269;28;20183;-80
2023/01/03 09:43:50;;;;;;;60.10;51.22;;;;;;;35.74;10.75;96007.69;5007086;28;20068;-78
2023/01/03 09:46:20;;;;;;;56.35;49.03;;;;;;;36.02;10.59;95998.00;5025181;28;20032;-79
2023/01/03 09:48:47;;;;;;;54.15;48.05;;;;;;;36.26;10.50;95985.78;5007114;28;20084;-79
2023/01/03 10:06:06;;;;;;;53.75;48.13;;;;;;;37.69;9.33;95961.06;4989256;28;20041;-76
2023/01/03 10:08:38;;;;;;;54.38;46.40;;;;;;;37.87;9.35;95958.16;5003461;28;20050;-76
2023/01/03 10:11:31;;;;;;;53.73;48.00;;;;;;;38.14;9.43;95960.94;5004611;28;20112;-76
2023/01/03 10:14:22;;;;;;;56.92;50.80;;;;;;;38.33;9.34;95957.41;5006277;28;20052;-75
2023/01/03 10:16:53;;;;;;;64.13;57.33;;;;;;;38.51;9.50;95953.81;4981309;28;20160;-75
2023/01/03 10:19:30;;;;;;;65.43;58.47;;;;;;;38.60;9.48;95954.41;4990880;28;20531;-75
2023/01/03 10:22:04;;;;;;;65.35;58.72;;;;;;;38.91;9.26;95943.13;5000889;28;20032;-78
2023/01/03 10:24:31;;;;;;;68.60;61.63;;;;;;;38.79;8.81;95937.25;5007589;28;20085;-77
2023/01/03 10:27:18;;;;;;;68.38;61.45;;;;;;;39.10;9.03;95936.63;4990420;28;20042;-78
2023/01/03 10:29:44;;;;;;;64.30;57.33;;;;;;;39.20;9.03;95926.66;4992571;28;20030;-78
2023/01/03 10:32:26;;;;;;;64.50;57.70;;;;;;;39.34;8.95;95926.91;4994455;28;20030;-77
2023/01/03 10:35:00;;;;;;;63.92;57.05;;;;;;;39.40;8.83;95923.72;5027496;28;20526;-78
2023/01/03 10:37:26;;;;;;;62.13;55.60;;;;;;;39.69;8.71;95927.31;5010594;28;20037;-81
2023/01/03 10:40:01;;;;;;;59.90;53.83;;;;;;;40.14;8.37;95921.06;5026942;28;20095;-77
2023/01/03 10:42:26;;;;;;;60.53;54.20;;;;;;;40.48;8.27;95911.13;5010830;28;20040;-79
2023/01/03 10:44:58;;;;;;;59.65;53.40;;;;;;;40.75;8.62;95905.06;5010262;28;20412;-79
2023/01/03 10:47:24;;;;;;;56.53;50.80;;;;;;;41.04;8.08;95899.06;5010921;28;20029;-78
2023/01/03 10:49:49;;;;;;;54.08;48.78;;;;;;;41.37;8.10;95894.03;5010266;28;20461;-79
2023/01/03 10:52:16;;;;;;;53.38;48.00;;;;;;;41.52;7.57;95897.81;5010388;28;20033;-79
2023/01/03 10:54:42;;;;;;;52.10;46.85;;;;;;;41.84;7.53;95891.22;5026868;28;20032;-80
2023/01/03 10:57:45;;;;;;;51.30;46.00;;;;;;;42.12;7.42;95883.56;5028141;28;20025;-78
2023/01/03 11:00:32;;;;;;;48.90;43.75;;;;;;;42.59;7.33;95897.19;5011819;28;20150;-77
2023/01/03 11:03:08;;;;;;;50.33;45.22;;;;;;;43.08;7.01;95883.47;5026460;28;20048;-78
2023/01/03 11:05:34;;;;;;;48.95;44.10;;;;;;;43.50;6.66;95878.59;5009842;28;20030;-79
2023/01/03 11:08:04;;;;;;;49.75;44.63;;;;;;;43.85;6.28;95878.34;5010329;28;20037;-77
2023/01/03 11:10:37;;;;;;;50.50;45.25;;;;;;;44.20;6.11;95871.50;5009480;28;20551;-76
2023/01/03 11:13:22;;;;;;;51.92;46.63;;;;;;;44.32;5.90;95859.78;5011455;28;20061;-82
2023/01/03 11:15:50;;;;;;;51.22;46.05;;;;;;;44.39;6.08;95862.38;5010292;28;20028;-79
2023/01/03 11:18:17;;;;;;;50.60;45.20;;;;;;;44.49;6.15;95862.13;5010074;28;20125;-80
2023/01/03 11:20:53;;;;;;;49.38;44.25;;;;;;;44.82;6.00;95855.84;5009904;28;20519;-80
2023/01/03 11:23:38;;;;;;;51.65;46.35;;;;;;;45.07;5.63;95860.69;5009243;28;20530;-77
2023/01/03 11:26:13;;;;;;;55.63;47.38;;;;;;;45.33;5.84;95840.91;5009643;28;20380;-79
2023/01/03 11:29:04;;;;;;;53.03;47.53;;;;;;;45.46;5.81;95839.34;5025083;28;20451;-79
2023/01/03 11:31:37;;;;;;;53.83;47.42;;;;;;;45.63;5.82;95838.72;5011559;28;20064;-80
2023/01/03 11:34:20;;;;;;;52.47;46.67;;;;;;;45.74;5.58;95823.28;5026271;28;20064;-79
2023/01/03 11:37:02;;;;;;;51.60;46.10;;;;;;;45.75;5.82;95824.78;5025427;28;20523;-79
2023/01/03 11:39:48;;;;;;;58.45;47.92;;;;;;;45.89;5.50;95830.47;5010338;28;20057;-78
2023/01/03 11:42:29;;;;;;;53.92;48.03;;;;;;;45.92;5.63;95822.59;5026398;28;20432;-78
2023/01/03 11:45:15;;;;;;;55.17;48.95;;;;;;;45.98;5.40;95814.91;5025549;28;20566;-78
2023/01/03 11:47:40;;;;;;;54.13;48.03;;;;;;;45.90;5.36;95808.75;5011386;28;20029;-77
2023/01/03 11:50:34;;;;;;;56.08;49.65;;;;;;;45.75;5.80;95818.97;5027217;28;20047;-77
2023/01/03 11:53:51;;;;;;;54.70;49.08;;;;;;;45.48;5.47;95811.19;5032004;28;20075;-77
2023/01/03 11:56:35;;;;;;;58.67;52.55;;;;;;;45.15;5.67;95800.19;4994561;28;20099;-78
2023/01/03 11:59:15;;;;;;;61.17;53.35;;;;;;;44.84;5.96;95806.63;5009074;28;20046;-78
2023/01/03 12:01:47;;;;;;;62.42;54.78;;;;;;;44.53;6.19;95806.53;5025345;28;20117;-78
2023/01/03 12:04:41;;;;;;;63.78;56.75;;;;;;;44.05;6.33;95802.59;5025971;28;20030;-78
2023/01/03 12:07:14;;;;;;;64.47;57.58;;;;;;;43.53;6.59;95798.41;5026491;28;20115;-78
2023/01/03 12:09:45;;;;;;;65.72;57.08;;;;;;;42.98;6.80;95790.31;5025580;28;20021;-78
2023/01/03 12:12:32;;;;;;;68.45;60.38;;;;;;;42.45;7.19;95792.34;5009041;28;20025;-77
2023/01/03 12:15:01;;;;;;;68.88;61.22;;;;;;;42.09;7.33;95786.63;5025132;28;20033;-78
2023/01/03 12:17:40;;;;;;;71.57;63.88;;;;;;;40.93;8.05;95785.22;5009076;28;20041;-78
2023/01/03 12:20:14;;;;;;;73.32;65.43;;;;;;;39.22;8.87;95780.16;5008665;28;20373;-78
2023/01/03 12:22:46;;;;;;;75.55;65.53;;;;;;;37.76;10.12;95775.84;5025422;28;20078;-78
2023/01/03 12:25:26;;;;;;;80.60;67.05;;;;;;;36.27;10.78;95774.72;5009512;28;20413;-79
2023/01/03 12:28:21;;;;;;;83.40;70.25;;;;;;;34.80;11.71;95765.88;5024818;28;20107;-78
2023/01/03 12:31:01;;;;;;;79.13;70.32;;;;;;;33.73;12.66;95771.97;5025490;28;20458;-78
2023/01/03 12:33:35;;;;;;;81.10;69.15;;;;;;;32.80;13.71;95754.63;5023945;28;20530;-78
2023/01/03 12:36:26;;;;;;;81.47;72.72;;;;;;;31.99;14.33;95753.94;5009022;28;20032;-78
2023/01/03 12:39:21;;;;;;;95.68;75.32;;;;;;;31.25;14.78;95762.91;5026184;28;20033;-77